Time;durP1;ratioP1;P1;durP2;ratioP2;P2;SDS_P1;SDS_P2;PMS_P1;PMS_P2;Temp;Humidity;BMP_temperature;BMP_pressure;BME280_temperature;BME280_humidity;BME280_pressure;Samples;Min_cycle;Max_cycle;Signal;HPM_P1;HPM_P2
2022/04/26 03:39:04;;;;;;;38.55;21.58;;;;;;;;;;6264844;28;20037;-80
2022/04/26 03:42:04;;;;;;;37.47;20.80;;;;;;;;;;6267271;28;20087;-80
2022/04/26 03:45:05;;;;;;;37.63;20.92;;;;;;;;;;6267421;28;20024;-80
2022/04/26 03:48:05;;;;;;;42.03;23.48;;;;;;;;;;6280700;28;20139;-80
2022/04/26 03:51:05;;;;;;;46.33;21.33;;;;;;;;;;6268390;28;20020;-80
2022/04/26 03:54:05;;;;;;;36.75;21.33;;;;;;;;;;6268549;28;20101;-80
2022/04/26 03:57:06;;;;;;;43.00;23.03;;;;;;;;;;6250818;28;20029;-80
2022/04/26 04:00:06;;;;;;;56.30;28.48;;;;;;;;;;6268036;28;20282;-80
2022/04/26 04:03:06;;;;;;;56.08;27.00;;;;;;;;;;6268409;28;20598;-80
2022/04/26 04:06:07;;;;;;;47.35;25.52;;;;;;;;;;6250573;28;20029;-81
2022/04/26 04:09:07;;;;;;;46.63;26.23;;;;;;;;;;6267366;28;20037;-80
2022/04/26 04:12:08;;;;;;;46.78;26.02;;;;;;;;;;6266952;28;20021;-80
2022/04/26 04:15:09;;;;;;;41.00;23.00;;;;;;;;;;6266990;28;20033;-80
2022/04/26 04:21:28;;;;;;;47.63;21.63;;;;;;;;;;6243948;28;20522;-80
2022/04/26 04:24:28;;;;;;;39.33;21.73;;;;;;;;;;6251455;28;20077;-79
2022/04/26 04:27:28;;;;;;;40.37;21.13;;;;;;;;;;6252057;28;20274;-79
2022/04/26 04:30:28;;;;;;;35.47;20.85;;;;;;;;;;6248107;28;21417;-79
2022/04/26 04:33:28;;;;;;;36.17;19.60;;;;;;;;;;6251981;28;20132;-80
2022/04/26 04:36:29;;;;;;;42.22;22.55;;;;;;;;;;6248533;28;20785;-81
2022/04/26 04:39:29;;;;;;;38.45;22.25;;;;;;;;;;6268200;28;20021;-80
2022/04/26 04:42:30;;;;;;;40.75;20.48;;;;;;;;;;6271300;28;20023;-80
2022/04/26 04:45:30;;;;;;;34.38;19.73;;;;;;;;;;6268732;28;20013;-79
2022/04/26 04:48:30;;;;;;;36.43;17.57;;;;;;;;;;6270970;28;20029;-80
2022/04/26 04:51:30;;;;;;;35.17;19.43;;;;;;;;;;6271769;28;20287;-80
2022/04/26 04:54:30;;;;;;;36.25;19.40;;;;;;;;;;6254000;28;20291;-80
2022/04/26 04:57:31;;;;;;;35.35;18.75;;;;;;;;;;6274613;28;20091;-80
2022/04/26 05:00:31;;;;;;;28.60;17.70;;;;;;;;;;6273173;28;20029;-79
2022/04/26 05:03:31;;;;;;;33.78;18.83;;;;;;;;;;6270887;28;20267;-79
2022/04/26 05:06:32;;;;;;;35.25;18.70;;;;;;;;;;6253654;28;20055;-80
2022/04/26 05:09:32;;;;;;;37.60;20.50;;;;;;;;;;6270132;28;20041;-80
2022/04/26 05:12:33;;;;;;;35.17;19.70;;;;;;;;;;6270911;28;20024;-80
2022/04/26 05:15:33;;;;;;;40.90;20.60;;;;;;;;;;6271771;28;20270;-80
2022/04/26 05:18:33;;;;;;;37.70;21.27;;;;;;;;;;6253194;28;20024;-80
2022/04/26 05:21:34;;;;;;;39.45;21.27;;;;;;;;;;6253395;28;20170;-79
2022/04/26 05:27:56;;;;;;;37.58;21.55;;;;;;;;;;6270176;28;20426;-79
2022/04/26 05:30:56;;;;;;;34.93;21.33;;;;;;;;;;6270039;28;20094;-79
2022/04/26 05:33:56;;;;;;;32.47;17.25;;;;;;;;;;6268521;28;20259;-79
2022/04/26 05:36:57;;;;;;;42.40;23.30;;;;;;;;;;6250294;28;20016;-80
2022/04/26 05:39:59;;;;;;;34.70;20.80;;;;;;;;;;6269889;28;20028;-80
2022/04/26 05:42:59;;;;;;;33.53;18.48;;;;;;;;;;6271527;28;20025;-80
2022/04/26 05:46:00;;;;;;;34.93;18.80;;;;;;;;;;6259254;28;20345;-80
2022/04/26 05:49:00;;;;;;;29.15;17.95;;;;;;;;;;6228568;28;20268;-80
2022/04/26 05:52:03;;;;;;;37.43;20.30;;;;;;;;;;6245463;28;20024;-80
2022/04/26 05:55:07;;;;;;;30.42;18.38;;;;;;;;;;6238144;28;20255;-80
2022/04/26 05:58:09;;;;;;;28.50;17.10;;;;;;;;;;6269919;28;20031;-81
2022/04/26 06:01:09;;;;;;;24.15;14.90;;;;;;;;;;6252928;28;20031;-80
2022/04/26 06:04:09;;;;;;;32.47;17.30;;;;;;;;;;6249809;28;20029;-80
2022/04/26 06:07:10;;;;;;;30.52;18.33;;;;;;;;;;6268767;28;20278;-80
2022/04/26 06:10:11;;;;;;;31.17;18.02;;;;;;;;;;6267544;28;20044;-80
2022/04/26 06:13:11;;;;;;;34.72;18.58;;;;;;;;;;6270741;28;20052;-81
2022/04/26 06:16:12;;;;;;;29.83;17.70;;;;;;;;;;6251598;28;20035;-81
2022/04/26 06:19:12;;;;;;;41.10;20.52;;;;;;;;;;6269723;28;20293;-81
2022/04/26 06:22:12;;;;;;;34.77;19.37;;;;;;;;;;6269308;28;20456;-81
2022/04/26 06:25:12;;;;;;;41.55;24.15;;;;;;;;;;6251258;28;20307;-80
2022/04/26 06:28:13;;;;;;;37.83;22.67;;;;;;;;;;6270106;28;20020;-80
2022/04/26 06:31:13;;;;;;;37.58;20.60;;;;;;;;;;6270189;28;20095;-80
2022/04/26 06:34:13;;;;;;;37.25;21.05;;;;;;;;;;6269110;28;20340;-80
2022/04/26 06:37:14;;;;;;;30.35;17.70;;;;;;;;;;6253052;28;20108;-80
2022/04/26 06:40:14;;;;;;;32.53;18.80;;;;;;;;;;6268963;28;20483;-80
2022/04/26 06:43:14;;;;;;;38.30;21.33;;;;;;;;;;6249665;28;20020;-81
2022/04/26 06:46:15;;;;;;;37.85;20.15;;;;;;;;;;6267629;28;20532;-81
2022/04/26 06:49:15;;;;;;;38.03;23.50;;;;;;;;;;6269424;28;20030;-80
2022/04/26 06:52:15;;;;;;;38.45;21.48;;;;;;;;;;6251969;28;20264;-81
2022/04/26 06:55:15;;;;;;;33.08;18.48;;;;;;;;;;6269167;28;20033;-80
2022/04/26 06:58:16;;;;;;;39.05;21.08;;;;;;;;;;6268111;28;20033;-81
2022/04/26 07:01:16;;;;;;;33.35;18.88;;;;;;;;;;6251780;28;20044;-81
2022/04/26 07:04:17;;;;;;;30.40;18.40;;;;;;;;;;6268934;28;20024;-80
2022/04/26 07:07:17;;;;;;;35.58;20.10;;;;;;;;;;6269505;28;20316;-80
2022/04/26 07:10:18;;;;;;;34.17;21.30;;;;;;;;;;6264467;28;20045;-80
2022/04/26 07:13:22;;;;;;;29.52;18.45;;;;;;;;;;6268297;28;20560;-80
2022/04/26 07:16:22;;;;;;;26.33;16.40;;;;;;;;;;6264896;28;20947;-81
2022/04/26 07:19:23;;;;;;;27.40;16.30;;;;;;;;;;6263205;28;20033;-81
2022/04/26 07:22:23;;;;;;;26.38;17.15;;;;;;;;;;6265882;28;20275;-81
2022/04/26 07:25:23;;;;;;;29.65;15.80;;;;;;;;;;6262109;28;20057;-81
2022/04/26 07:28:24;;;;;;;30.63;15.73;;;;;;;;;;6267175;28;20077;-81
2022/04/26 07:31:24;;;;;;;29.48;16.65;;;;;;;;;;6263402;28;20325;-81
2022/04/26 07:34:25;;;;;;;29.13;17.33;;;;;;;;;;6261953;28;20095;-81
2022/04/26 07:37:25;;;;;;;29.55;16.38;;;;;;;;;;6258672;28;20097;-81
2022/04/26 07:40:26;;;;;;;24.20;14.37;;;;;;;;;;6264298;28;20116;-81
2022/04/26 07:43:26;;;;;;;29.73;15.43;;;;;;;;;;6252082;28;20256;-81
2022/04/26 07:46:26;;;;;;;27.03;16.70;;;;;;;;;;6224120;28;20036;-81
2022/04/26 07:49:27;;;;;;;29.42;16.02;;;;;;;;;;6224812;28;20393;-81
2022/04/26 07:52:28;;;;;;;23.75;13.68;;;;;;;;;;6225952;28;20021;-81
2022/04/26 07:55:29;;;;;;;21.55;12.98;;;;;;;;;;6237530;28;20025;-81
2022/04/26 07:58:29;;;;;;;25.75;13.95;;;;;;;;;;6266535;28;20051;-81
2022/04/26 08:01:30;;;;;;;25.80;14.87;;;;;;;;;;6266925;28;20423;-81
2022/04/26 08:04:30;;;;;;;26.10;17.80;;;;;;;;;;6266365;28;20028;-81
2022/04/26 08:07:31;;;;;;;30.10;16.13;;;;;;;;;;6266978;28;20100;-81
2022/04/26 08:10:31;;;;;;;22.23;13.83;;;;;;;;;;6261314;28;20041;-81
2022/04/26 08:13:32;;;;;;;26.92;15.38;;;;;;;;;;6268564;28;20031;-82
2022/04/26 08:16:32;;;;;;;27.70;16.77;;;;;;;;;;6270897;28;20033;-81
2022/04/26 08:19:33;;;;;;;25.77;16.08;;;;;;;;;;6255023;28;20025;-81
2022/04/26 08:22:33;;;;;;;26.77;14.25;;;;;;;;;;6255460;28;20028;-82
2022/04/26 08:28:53;;;;;;;25.17;14.25;;;;;;;;;;6273652;28;20116;-83
2022/04/26 08:31:55;;;;;;;27.52;15.38;;;;;;;;;;6254741;28;20343;-82
2022/04/26 08:34:57;;;;;;;28.58;15.57;;;;;;;;;;6255078;28;20035;-82
2022/04/26 08:37:57;;;;;;;24.95;14.98;;;;;;;;;;6255072;28;20063;-82
2022/04/26 08:40:58;;;;;;;23.87;14.73;;;;;;;;;;6254894;28;20186;-82
2022/04/26 08:43:58;;;;;;;27.37;14.87;;;;;;;;;;6246179;28;20033;-82
2022/04/26 08:53:37;;;;;;;23.77;14.00;;;;;;;;;;6247999;28;20033;-83
2022/04/26 08:56:38;;;;;;;25.05;14.50;;;;;;;;;;6268971;28;20021;-83
2022/04/26 08:59:51;;;;;;;26.63;14.77;;;;;;;;;;6272472;28;20316;-83
2022/04/26 09:03:02;;;;;;;20.38;13.05;;;;;;;;;;6255585;28;20051;-82
2022/04/26 09:06:04;;;;;;;22.02;14.95;;;;;;;;;;6255280;28;20025;-83
2022/04/26 09:09:08;;;;;;;26.42;13.48;;;;;;;;;;6243682;28;20029;-83
2022/04/26 09:12:10;;;;;;;24.95;14.60;;;;;;;;;;6270515;28;20033;-83
2022/04/26 09:15:16;;;;;;;25.45;14.27;;;;;;;;;;6254619;28;22479;-83
2022/04/26 09:18:21;;;;;;;25.70;13.40;;;;;;;;;;6272423;28;20035;-82
2022/04/26 09:21:26;;;;;;;19.08;11.85;;;;;;;;;;6271950;28;20442;-83
2022/04/26 09:24:26;;;;;;;25.67;14.77;;;;;;;;;;6249346;28;20035;-83
2022/04/26 09:27:28;;;;;;;20.47;13.43;;;;;;;;;;6244856;28;20025;-82
2022/04/26 09:30:29;;;;;;;;;;;;;;;;;;6245939;28;20162;-83
2022/04/26 09:33:29;;;;;;;26.23;16.27;;;;;;;;;;6247343;28;19904;-83
2022/04/26 09:36:32;;;;;;;40.53;23.90;;;;;;;;;;6247081;28;20025;-82
2022/04/26 09:39:33;;;;;;;29.13;17.80;;;;;;;;;;6245182;28;20560;-82
2022/04/26 09:42:33;;;;;;;26.80;17.88;;;;;;;;;;6253377;28;20031;-83
2022/04/26 09:45:34;;;;;;;26.65;17.80;;;;;;;;;;6271641;28;20039;-83
2022/04/26 09:48:35;;;;;;;29.30;17.08;;;;;;;;;;6252330;28;20460;-83
2022/04/26 09:51:39;;;;;;;31.95;17.83;;;;;;;;;;6250814;28;20025;-82
2022/04/26 09:54:39;;;;;;;31.35;18.42;;;;;;;;;;6268916;28;20020;-82
2022/04/26 09:57:41;;;;;;;24.80;14.60;;;;;;;;;;6270410;28;20380;-83
2022/04/26 10:00:43;;;;;;;32.05;18.10;;;;;;;;;;6270259;28;20199;-82
2022/04/26 10:03:45;;;;;;;28.67;17.05;;;;;;;;;;6268827;28;20525;-82
2022/04/26 10:06:47;;;;;;;30.90;17.13;;;;;;;;;;6270895;28;20028;-82
2022/04/26 10:09:48;;;;;;;25.52;15.48;;;;;;;;;;6272837;28;20053;-82
2022/04/26 10:13:31;;;;;;;24.98;13.68;;;;;;;;;;6244924;28;20311;-82
2022/04/26 10:16:10;;;;;;;25.45;15.45;;;;;;;;;;6255399;28;20045;-82
2022/04/26 10:19:12;;;;;;;29.00;15.98;;;;;;;;;;6260926;28;20055;-82
2022/04/26 10:22:16;;;;;;;25.67;12.57;;;;;;;;;;6252431;28;20028;-82
2022/04/26 10:25:21;;;;;;;23.30;13.90;;;;;;;;;;6252460;28;20120;-82
2022/04/26 10:28:26;;;;;;;31.77;17.75;;;;;;;;;;6251954;28;20029;-82
2022/04/26 10:31:35;;;;;;;26.02;13.80;;;;;;;;;;6270548;28;20021;-82
2022/04/26 10:34:36;;;;;;;26.40;14.68;;;;;;;;;;6269741;28;20024;-82
2022/04/26 10:37:37;;;;;;;21.85;11.90;;;;;;;;;;6270368;28;20383;-82
2022/04/26 10:40:56;;;;;;;21.10;9.57;;;;;;;;;;6270363;28;20438;-81
2022/04/26 10:44:17;;;;;;;11.45;6.28;;;;;;;;;;6261131;28;20427;-82
2022/04/26 10:47:20;;;;;;;13.45;7.20;;;;;;;;;;6266208;28;20029;-81
2022/04/26 10:50:30;;;;;;;12.65;6.93;;;;;;;;;;6248849;28;20029;-82
2022/04/26 10:53:45;;;;;;;12.63;6.72;;;;;;;;;;6268822;28;20021;-82
2022/04/26 10:56:45;;;;;;;10.57;5.72;;;;;;;;;;6266001;28;20032;-82
2022/04/26 10:59:46;;;;;;;8.93;4.87;;;;;;;;;;6266850;28;20021;-81
2022/04/26 11:02:48;;;;;;;10.83;4.97;;;;;;;;;;6250886;28;20283;-82
2022/04/26 11:05:48;;;;;;;10.73;5.03;;;;;;;;;;6268881;28;20032;-81
2022/04/26 11:09:04;;;;;;;10.80;5.38;;;;;;;;;;6250529;28;20053;-82
2022/04/26 11:12:04;;;;;;;9.10;5.53;;;;;;;;;;6240512;28;20033;-81
2022/04/26 11:15:12;;;;;;;10.40;5.45;;;;;;;;;;6227398;28;20750;-82
2022/04/26 11:18:19;;;;;;;10.23;5.93;;;;;;;;;;6266100;28;20098;-81
2022/04/26 11:21:19;;;;;;;14.30;6.63;;;;;;;;;;6226691;28;20052;-81
2022/04/26 11:30:58;;;;;;;13.75;7.32;;;;;;;;;;6268188;28;20025;-81
2022/04/26 11:33:58;;;;;;;15.48;8.10;;;;;;;;;;6268425;28;20028;-81
2022/04/26 11:36:58;;;;;;;14.27;8.00;;;;;;;;;;6266306;28;20139;-81
2022/04/26 11:40:01;;;;;;;14.80;8.90;;;;;;;;;;6248379;28;20028;-81
2022/04/26 11:43:08;;;;;;;16.75;9.35;;;;;;;;;;6257259;28;20116;-82
2022/04/26 11:46:11;;;;;;;15.38;9.05;;;;;;;;;;6240779;28;20021;-81
2022/04/26 11:49:11;;;;;;;16.40;8.95;;;;;;;;;;6241847;28;20041;-81
2022/04/26 11:52:11;;;;;;;18.27;9.93;;;;;;;;;;6224943;28;20043;-80
2022/04/26 11:55:25;;;;;;;19.85;8.20;;;;;;;;;;6253741;28;20108;-82
2022/04/26 11:58:28;;;;;;;14.23;8.02;;;;;;;;;;6250005;28;20017;-82
2022/04/26 12:01:28;;;;;;;16.80;9.63;;;;;;;;;;6250209;28;20503;-81
2022/04/26 12:04:29;;;;;;;12.90;7.57;;;;;;;;;;6250342;28;20025;-81
2022/04/26 12:07:30;;;;;;;15.77;9.23;;;;;;;;;;6267924;28;20025;-82
2022/04/26 12:10:32;;;;;;;15.48;8.57;;;;;;;;;;6255523;28;20032;-82
2022/04/26 12:13:32;;;;;;;13.65;7.28;;;;;;;;;;6250144;28;20120;-81
2022/04/26 12:16:43;;;;;;;12.13;5.78;;;;;;;;;;6248122;28;20472;-82
2022/04/26 12:19:50;;;;;;;11.48;6.93;;;;;;;;;;6255124;28;20021;-82
2022/04/26 12:22:50;;;;;;;12.90;6.55;;;;;;;;;;6250113;28;20024;-82
2022/04/26 12:25:53;;;;;;;16.93;7.60;;;;;;;;;;6266463;28;20025;-81
2022/04/26 12:28:54;;;;;;;12.55;7.20;;;;;;;;;;6266736;28;20734;-82
2022/04/26 12:31:54;;;;;;;17.60;8.67;;;;;;;;;;6266416;28;20043;-82
2022/04/26 12:34:56;;;;;;;18.55;9.32;;;;;;;;;;6266868;28;20266;-82
2022/04/26 12:38:03;;;;;;;15.07;8.43;;;;;;;;;;6270175;28;20032;-81
2022/04/26 12:41:05;;;;;;;13.82;7.93;;;;;;;;;;6249262;28;20021;-82
2022/04/26 12:44:07;;;;;;;17.20;9.82;;;;;;;;;;6253885;28;20021;-81
2022/04/26 12:50:33;;;;;;;18.20;9.98;;;;;;;;;;6267775;28;20123;-81
2022/04/26 12:53:34;;;;;;;17.35;9.48;;;;;;;;;;6274244;28;20487;-81
2022/04/26 12:56:35;;;;;;;18.63;10.70;;;;;;;;;;6251817;28;20025;-81
2022/04/26 12:59:36;;;;;;;17.13;8.93;;;;;;;;;;6248260;28;20025;-81
2022/04/26 13:02:36;;;;;;;16.35;9.10;;;;;;;;;;6271576;28;20029;-81
2022/04/26 13:05:37;;;;;;;18.08;10.50;;;;;;;;;;6296662;28;20056;-81
2022/04/26 13:08:38;;;;;;;15.13;10.30;;;;;;;;;;6251752;28;20009;-82
2022/04/26 13:11:39;;;;;;;15.80;9.70;;;;;;;;;;6269327;28;20280;-81
2022/04/26 13:14:39;;;;;;;16.65;9.27;;;;;;;;;;6252326;28;20035;-81
2022/04/26 13:17:39;;;;;;;19.77;9.03;;;;;;;;;;6269788;28;20082;-81
2022/04/26 13:20:40;;;;;;;18.85;11.32;;;;;;;;;;6269433;28;20255;-81
2022/04/26 13:23:41;;;;;;;14.48;8.90;;;;;;;;;;6271257;28;20024;-81
2022/04/26 13:26:41;;;;;;;18.57;9.80;;;;;;;;;;6270800;28;20036;-81
2022/04/26 13:29:41;;;;;;;18.17;10.07;;;;;;;;;;6270635;28;20016;-82
2022/04/26 13:32:42;;;;;;;19.35;9.70;;;;;;;;;;6270061;28;20270;-81
2022/04/26 13:35:42;;;;;;;16.35;9.95;;;;;;;;;;6251838;28;20028;-82
2022/04/26 13:38:43;;;;;;;15.95;8.98;;;;;;;;;;6248790;28;20052;-81
2022/04/26 13:41:43;;;;;;;18.00;10.00;;;;;;;;;;6250281;28;20112;-81
2022/04/26 13:44:45;;;;;;;18.60;11.13;;;;;;;;;;6239254;28;20052;-82
2022/04/26 13:47:45;;;;;;;19.13;10.48;;;;;;;;;;6253618;28;20029;-81
2022/04/26 13:50:46;;;;;;;16.70;9.93;;;;;;;;;;6256875;28;20032;-81
2022/04/26 13:53:46;;;;;;;18.80;10.47;;;;;;;;;;6269769;28;20036;-81
2022/04/26 13:56:49;;;;;;;18.27;10.80;;;;;;;;;;6269150;28;20041;-82
2022/04/26 13:59:49;;;;;;;17.08;9.23;;;;;;;;;;6251352;28;20029;-81
2022/04/26 14:02:50;;;;;;;20.55;11.50;;;;;;;;;;6269409;28;20024;-81
2022/04/26 14:05:50;;;;;;;18.23;11.23;;;;;;;;;;6268542;28;20421;-81
2022/04/26 14:08:51;;;;;;;16.87;10.47;;;;;;;;;;6268307;28;20024;-82
2022/04/26 14:11:53;;;;;;;17.15;9.60;;;;;;;;;;6250276;28;20299;-81
2022/04/26 14:21:50;;;;;;;18.30;10.32;;;;;;;;;;6257932;28;20051;-81
2022/04/26 14:24:53;;;;;;;19.25;8.60;;;;;;;;;;6268674;28;20635;-81
2022/04/26 14:27:53;;;;;;;19.98;9.30;;;;;;;;;;6265119;28;20030;-81
2022/04/26 14:30:54;;;;;;;15.73;8.63;;;;;;;;;;6268264;28;20364;-82
2022/04/26 14:33:54;;;;;;;16.45;8.48;;;;;;;;;;6267723;28;20275;-82
2022/04/26 14:36:55;;;;;;;16.63;8.77;;;;;;;;;;6268936;28;20055;-81
2022/04/26 14:39:55;;;;;;;14.80;8.13;;;;;;;;;;6270128;28;20369;-81
2022/04/26 14:42:55;;;;;;;22.38;9.15;;;;;;;;;;6269384;28;20028;-81
2022/04/26 14:45:55;;;;;;;16.35;9.63;;;;;;;;;;6269345;28;20029;-81
2022/04/26 14:48:56;;;;;;;17.95;10.15;;;;;;;;;;6266509;28;20075;-81
2022/04/26 14:51:56;;;;;;;15.57;8.68;;;;;;;;;;6261906;28;20033;-81
2022/04/26 14:54:57;;;;;;;20.77;10.77;;;;;;;;;;6262808;28;20032;-81
2022/04/26 14:57:57;;;;;;;16.42;8.48;;;;;;;;;;6265061;28;20025;-81
2022/04/26 15:00:57;;;;;;;15.80;8.50;;;;;;;;;;6248007;28;20215;-81
2022/04/26 15:03:58;;;;;;;15.13;9.50;;;;;;;;;;6264668;28;20283;-81
2022/04/26 15:06:58;;;;;;;16.27;8.93;;;;;;;;;;6246908;28;20017;-81
2022/04/26 15:09:59;;;;;;;17.60;9.02;;;;;;;;;;6266138;28;20037;-82
2022/04/26 15:19:37;;;;;;;17.08;8.63;;;;;;;;;;6262261;28;20033;-81
2022/04/26 15:22:38;;;;;;;18.97;8.57;;;;;;;;;;6267208;28;20459;-82
2022/04/26 15:25:40;;;;;;;19.03;8.23;;;;;;;;;;6271468;28;20115;-81
2022/04/26 15:28:41;;;;;;;15.75;9.35;;;;;;;;;;6274962;28;20028;-81
2022/04/26 15:31:42;;;;;;;17.17;9.18;;;;;;;;;;6290224;28;20043;-81
2022/04/26 15:34:42;;;;;;;21.30;9.93;;;;;;;;;;6269214;28;20468;-81
2022/04/26 15:37:43;;;;;;;17.73;9.35;;;;;;;;;;6268587;28;20073;-81
2022/04/26 15:40:46;;;;;;;16.52;8.88;;;;;;;;;;6265647;28;20116;-82
2022/04/26 15:43:46;;;;;;;18.25;10.02;;;;;;;;;;6265976;28;20107;-81
2022/04/26 15:46:48;;;;;;;26.27;13.47;;;;;;;;;;6249369;28;20013;-81
2022/04/26 15:49:48;;;;;;;;;;;;;;;;;;6249125;28;20256;-81
2022/04/26 15:52:49;;;;;;;22.40;10.55;;;;;;;;;;6266556;28;19990;-81
2022/04/26 15:55:49;;;;;;;25.08;13.98;;;;;;;;;;6249029;28;20034;-82
2022/04/26 15:58:49;;;;;;;20.58;10.95;;;;;;;;;;6265211;28;20545;-82
2022/04/26 16:01:49;;;;;;;19.30;9.60;;;;;;;;;;6265715;28;20025;-81
2022/04/26 16:04:50;;;;;;;14.10;8.52;;;;;;;;;;6249683;28;20303;-82
2022/04/26 16:07:51;;;;;;;16.63;8.73;;;;;;;;;;6267566;28;20077;-81
2022/04/26 16:20:48;;;;;;;24.48;10.68;;;;;;;;;;6262884;28;20218;-81
2022/04/26 16:23:49;;;;;;;18.53;9.63;;;;;;;;;;6263590;28;20028;-81
2022/04/26 16:26:49;;;;;;;21.67;11.25;;;;;;;;;;6264391;28;20278;-82
2022/04/26 16:29:50;;;;;;;22.83;12.10;;;;;;;;;;6262516;28;20467;-81
2022/04/26 16:32:50;;;;;;;25.42;12.18;;;;;;;;;;6244481;28;20053;-81
2022/04/26 16:35:51;;;;;;;23.87;11.80;;;;;;;;;;6249249;28;20017;-82
2022/04/26 16:38:52;;;;;;;19.83;11.13;;;;;;;;;;6249709;28;20259;-81
2022/04/26 16:41:52;;;;;;;23.00;12.27;;;;;;;;;;6255402;28;20031;-82
2022/04/26 16:44:52;;;;;;;31.17;15.25;;;;;;;;;;6271528;28;20056;-81
2022/04/26 16:47:53;;;;;;;26.23;14.07;;;;;;;;;;6270671;28;20021;-81
2022/04/26 16:50:53;;;;;;;21.42;12.43;;;;;;;;;;6258770;28;20050;-81
2022/04/26 16:53:53;;;;;;;34.03;19.55;;;;;;;;;;6269857;28;20104;-81
2022/04/26 16:56:54;;;;;;;25.98;12.95;;;;;;;;;;6270163;28;20562;-81
2022/04/26 16:59:56;;;;;;;21.58;11.80;;;;;;;;;;6270711;28;20024;-80
2022/04/26 17:02:56;;;;;;;27.60;13.82;;;;;;;;;;6270396;28;20099;-81
2022/04/26 17:05:57;;;;;;;28.35;15.25;;;;;;;;;;6270544;28;20031;-81
2022/04/26 17:08:57;;;;;;;26.98;15.02;;;;;;;;;;6270681;28;20349;-81
2022/04/26 17:11:57;;;;;;;22.20;12.50;;;;;;;;;;6255770;28;20024;-81
2022/04/26 17:14:57;;;;;;;28.35;14.05;;;;;;;;;;6270023;28;20040;-81
2022/04/26 17:17:58;;;;;;;25.75;14.18;;;;;;;;;;6270309;28;20461;-81
2022/04/26 17:20:58;;;;;;;26.55;15.15;;;;;;;;;;6270329;28;20032;-81
2022/04/26 17:24:00;;;;;;;23.23;13.80;;;;;;;;;;6269584;28;20032;-81
2022/04/26 17:27:01;;;;;;;23.88;14.35;;;;;;;;;;6271193;28;20274;-81
2022/04/26 17:30:02;;;;;;;25.55;15.95;;;;;;;;;;6270627;28;20017;-81
2022/04/26 17:33:03;;;;;;;28.60;16.67;;;;;;;;;;6269718;28;20021;-81
2022/04/26 17:36:03;;;;;;;27.40;14.67;;;;;;;;;;6269285;28;20029;-81
2022/04/26 17:39:04;;;;;;;28.02;15.70;;;;;;;;;;6253093;28;20271;-81
2022/04/26 17:42:06;;;;;;;28.80;15.00;;;;;;;;;;6271093;28;20500;-81
2022/04/26 17:45:07;;;;;;;23.30;13.40;;;;;;;;;;6248535;28;20645;-81
2022/04/26 17:48:08;;;;;;;27.48;14.52;;;;;;;;;;6240784;28;20017;-81
2022/04/26 17:51:08;;;;;;;22.02;12.88;;;;;;;;;;6268542;28;20029;-81
2022/04/26 17:57:27;;;;;;;50.15;24.95;;;;;;;;;;6269615;28;20443;-81
2022/04/26 18:00:29;;;;;;;62.57;27.90;;;;;;;;;;6257753;28;20120;-81
2022/04/26 18:03:30;;;;;;;70.60;29.42;;;;;;;;;;6269049;28;20822;-81
2022/04/26 18:06:30;;;;;;;64.60;29.35;;;;;;;;;;6268704;28;20027;-82
2022/04/26 18:09:33;;;;;;;70.50;30.70;;;;;;;;;;6270054;28;20049;-81
2022/04/26 18:12:33;;;;;;;;;;;;;;;;;;6264529;28;20021;-81
2022/04/26 18:15:33;;;;;;;47.72;23.88;;;;;;;;;;6270240;28;19963;-82
2022/04/26 18:18:33;;;;;;;56.33;29.03;;;;;;;;;;6251686;28;20426;-82
2022/04/26 18:21:34;;;;;;;57.75;26.50;;;;;;;;;;6250159;28;20339;-81
2022/04/26 18:24:34;;;;;;;42.33;21.55;;;;;;;;;;6266958;28;20025;-81
2022/04/26 18:27:35;;;;;;;48.75;22.77;;;;;;;;;;6267528;28;20033;-81
2022/04/26 18:30:35;;;;;;;43.83;22.42;;;;;;;;;;6267680;28;20021;-81
2022/04/26 18:33:37;;;;;;;41.07;20.33;;;;;;;;;;6267002;28;20032;-81
2022/04/26 18:36:37;;;;;;;46.35;23.73;;;;;;;;;;6250184;28;20267;-81
2022/04/26 18:39:37;;;;;;;44.20;23.87;;;;;;;;;;6267965;28;20028;-81
2022/04/26 18:42:38;;;;;;;47.92;23.17;;;;;;;;;;6268328;28;20275;-82
2022/04/26 18:45:40;;;;;;;49.75;23.85;;;;;;;;;;6268193;28;20210;-81
2022/04/26 18:48:41;;;;;;;64.15;34.30;;;;;;;;;;6269685;28;20131;-82
2022/04/26 18:51:43;;;;;;;68.63;36.78;;;;;;;;;;6268078;28;20028;-82
2022/04/26 18:54:43;;;;;;;72.25;36.97;;;;;;;;;;6262535;28;20021;-82
2022/04/26 18:57:43;;;;;;;90.77;43.37;;;;;;;;;;6249903;28;20405;-81
2022/04/26 19:00:44;;;;;;;74.53;39.23;;;;;;;;;;6267813;28;20643;-81
2022/04/26 19:03:44;;;;;;;80.05;39.67;;;;;;;;;;6267356;28;20286;-82
2022/04/26 19:06:45;;;;;;;74.00;38.08;;;;;;;;;;6261030;28;20055;-82
2022/04/26 19:13:04;;;;;;;68.32;33.33;;;;;;;;;;6244480;28;20025;-82
2022/04/26 19:16:05;;;;;;;72.28;37.67;;;;;;;;;;6235978;28;20074;-81
2022/04/26 19:19:05;;;;;;;93.47;48.78;;;;;;;;;;6268464;28;20486;-82
2022/04/26 19:22:05;;;;;;;64.18;36.25;;;;;;;;;;6247016;28;20036;-81
2022/04/26 19:25:06;;;;;;;62.13;34.70;;;;;;;;;;6249662;28;20044;-82
2022/04/26 19:28:06;;;;;;;65.60;35.47;;;;;;;;;;6267477;28;20279;-82
2022/04/26 19:31:07;;;;;;;67.13;33.97;;;;;;;;;;6261741;28;20558;-82
2022/04/26 19:34:07;;;;;;;74.68;37.58;;;;;;;;;;6250122;28;20119;-82
2022/04/26 19:37:08;;;;;;;95.32;46.05;;;;;;;;;;6263719;28;20025;-82
2022/04/26 19:40:08;;;;;;;77.32;38.78;;;;;;;;;;6262294;28;20021;-81
2022/04/26 19:43:09;;;;;;;71.50;39.88;;;;;;;;;;6250362;28;20017;-81
2022/04/26 19:46:09;;;;;;;90.03;49.92;;;;;;;;;;6250531;28;20725;-81
2022/04/26 19:49:10;;;;;;;76.28;39.67;;;;;;;;;;6268574;28;20021;-81
2022/04/26 19:52:10;;;;;;;77.60;45.42;;;;;;;;;;6267823;28;20021;-82
2022/04/26 19:55:10;;;;;;;78.38;41.70;;;;;;;;;;6267970;28;20337;-82
2022/04/26 19:58:11;;;;;;;67.35;36.30;;;;;;;;;;6268404;28;20396;-82
2022/04/26 20:01:12;;;;;;;75.93;40.95;;;;;;;;;;6249390;28;20162;-82
2022/04/26 20:04:13;;;;;;;91.00;45.85;;;;;;;;;;6249678;28;20021;-80
2022/04/26 20:07:14;;;;;;;81.22;42.60;;;;;;;;;;6249877;28;20025;-80
2022/04/26 20:10:15;;;;;;;86.57;44.63;;;;;;;;;;6267748;28;20039;-79
2022/04/26 20:13:15;;;;;;;86.40;40.60;;;;;;;;;;6253999;28;20025;-82
2022/04/26 20:16:15;;;;;;;66.68;34.42;;;;;;;;;;6272515;28;20100;-81
2022/04/26 20:19:16;;;;;;;77.47;37.95;;;;;;;;;;6272922;28;20111;-81
2022/04/26 20:22:16;;;;;;;82.00;44.50;;;;;;;;;;6272133;28;20025;-81
2022/04/26 20:25:16;;;;;;;74.38;39.22;;;;;;;;;;6254892;28;20021;-82
2022/04/26 20:31:36;;;;;;;80.97;39.15;;;;;;;;;;6272836;28;20048;-81
2022/04/26 20:34:36;;;;;;;78.60;40.40;;;;;;;;;;6272433;28;20443;-81
2022/04/26 20:37:36;;;;;;;85.25;41.50;;;;;;;;;;6272774;28;20025;-81
2022/04/26 20:40:37;;;;;;;91.65;45.67;;;;;;;;;;6254411;28;20029;-81
2022/04/26 20:43:37;;;;;;;48.67;25.45;;;;;;;;;;6253090;28;20021;-81
2022/04/26 20:46:37;;;;;;;52.40;23.70;;;;;;;;;;6271715;28;20102;-81
2022/04/26 20:49:37;;;;;;;54.30;25.65;;;;;;;;;;6255267;28;20392;-81
2022/04/26 20:52:38;;;;;;;76.97;37.47;;;;;;;;;;6270431;28;20027;-81
2022/04/26 20:55:38;;;;;;;68.30;33.07;;;;;;;;;;6255006;28;20146;-81
2022/04/26 20:58:38;;;;;;;62.72;32.92;;;;;;;;;;6270461;28;20263;-81
2022/04/26 21:01:38;;;;;;;74.55;34.00;;;;;;;;;;6253184;28;20025;-81
2022/04/26 21:04:39;;;;;;;69.80;33.55;;;;;;;;;;6251288;28;20025;-81
2022/04/26 21:07:39;;;;;;;53.33;27.25;;;;;;;;;;6268640;28;20066;-81
2022/04/26 21:10:39;;;;;;;56.17;27.95;;;;;;;;;;6256258;28;20047;-81
2022/04/26 21:13:40;;;;;;;47.65;23.08;;;;;;;;;;6252380;28;20021;-81
2022/04/26 21:16:40;;;;;;;47.57;25.23;;;;;;;;;;6270255;28;20044;-81
2022/04/26 21:19:40;;;;;;;56.25;28.70;;;;;;;;;;6270186;28;20263;-81
2022/04/26 21:22:40;;;;;;;51.47;24.73;;;;;;;;;;6270993;28;20091;-81
2022/04/26 21:25:42;;;;;;;57.40;27.00;;;;;;;;;;6271317;28;20364;-81
2022/04/26 21:28:43;;;;;;;50.72;23.58;;;;;;;;;;6271540;28;20286;-81
2022/04/26 21:31:45;;;;;;;66.67;30.77;;;;;;;;;;6271482;28;20391;-81
2022/04/26 21:34:45;;;;;;;65.38;34.60;;;;;;;;;;6271358;28;20029;-81
2022/04/26 21:37:45;;;;;;;89.80;40.17;;;;;;;;;;6253320;28;20055;-81
2022/04/26 21:40:46;;;;;;;87.45;40.33;;;;;;;;;;6253658;28;20255;-81
2022/04/26 21:43:46;;;;;;;93.07;41.67;;;;;;;;;;6271050;28;20035;-82
2022/04/26 21:46:46;;;;;;;80.68;38.25;;;;;;;;;;6270666;28;20313;-81
2022/04/26 21:53:05;;;;;;;74.35;35.50;;;;;;;;;;6269864;28;20817;-81
2022/04/26 21:56:06;;;;;;;67.60;28.98;;;;;;;;;;6271329;28;20035;-81
2022/04/26 21:59:06;;;;;;;58.65;27.45;;;;;;;;;;6252833;28;20479;-81
2022/04/26 22:02:06;;;;;;;49.77;24.37;;;;;;;;;;6265743;28;20465;-81
2022/04/26 22:05:06;;;;;;;59.88;25.55;;;;;;;;;;6268025;28;20306;-81
2022/04/26 22:08:07;;;;;;;59.95;28.95;;;;;;;;;;6248814;28;20055;-81
2022/04/26 22:11:07;;;;;;;56.08;23.83;;;;;;;;;;6267082;28;20120;-81
2022/04/26 22:14:07;;;;;;;48.07;24.47;;;;;;;;;;6267421;28;20104;-81
2022/04/26 22:17:08;;;;;;;38.97;18.25;;;;;;;;;;6269068;28;20733;-81
2022/04/26 22:20:09;;;;;;;38.00;18.02;;;;;;;;;;6252297;28;20392;-81